DTTA/TUN METAR and TAF weather

Enter ICAO airport designator
Station Type Date Time Source
DTTA METAR 2018/04/21 20:30 UTC NOAA

DTTA 212030Z 10009KT 060V140 9999 FEW023 19/15 Q1018 NOSIG


Station Type Date Time Source
DTTA Decoded METAR 2018/04/21 20:30 UTC NOAA

Tunis-Carthage, Tunisia (DTTA) 36-50N 010-14E 4M
Apr 21, 2018 - 04:30 PM EDT / 2018.04.21 2030 UTC
Wind: from the E (100 degrees) at 10 MPH (9 KT) (direction variable):0
Visibility: greater than 7 mile(s):0
Sky conditions: mostly clear
Temperature: 66 F (19 C)
Dew Point: 59 F (15 C)
Relative Humidity: 77%
Pressure (altimeter): 30.06 in. Hg (1018 hPa)
ob: DTTA 212030Z 10009KT 060V140 9999 FEW023 19/15 Q1018 NOSIG
cycle: 20

Station Type Date Time Source
DTTA TAF 2018/04/21 18:24 UTC NOAA

TAF DTTA 211720Z 2118/2218 05005KT 9999 FEW023
BECMG 2122/2124 13005KT 6000 PROB40 2202/2207 3000 BR SCT010


Example: see airport list